sensor_id;sensor_type;location;lat;lon;timestamp;P1;P4;P2;P0;N10;N4;N25;N1;N05;TS
78521;SPS30;67819;51.972;5.678;2023-10-08T00:02:16;0.1;0.1;0.1;0.1;;;;1.0;121.0;
78521;SPS30;67819;51.972;5.678;2023-10-08T00:04:48;0.0;0.0;0.0;0.0;;;;1.0;113.0;
78521;SPS30;67819;51.972;5.678;2023-10-08T00:07:18;0.0;0.0;0.0;0.0;;;;1.0;116.0;
78521;SPS30;67819;51.972;5.678;2023-10-08T00:09:48;0.4;0.3;0.3;0.3;;;;1.0;128.0;
78521;SPS30;67819;51.972;5.678;2023-10-08T00:12:19;0.0;0.0;0.0;0.0;;;;1.0;136.0;
78521;SPS30;67819;51.972;5.678;2023-10-08T00:14:48;0.0;0.0;0.0;0.0;;;;1.0;134.0;
78521;SPS30;67819;51.972;5.678;2023-10-08T00:17:19;0.0;0.0;0.0;0.0;;;;1.0;133.0;
78521;SPS30;67819;51.972;5.678;2023-10-08T00:19:48;1.6;1.5;1.4;1.3;;;;1.0;135.0;
78521;SPS30;67819;51.972;5.678;2023-10-08T00:22:19;0.1;0.1;0.1;0.1;;;;1.0;140.0;
78521;SPS30;67819;51.972;5.678;2023-10-08T00:24:51;1.0;1.0;0.9;0.8;;;;1.0;139.0;
78521;SPS30;67819;51.972;5.678;2023-10-08T00:27:24;0.1;0.1;0.0;0.0;;;;1.0;138.0;
78521;SPS30;67819;51.972;5.678;2023-10-08T00:29:52;0.0;0.0;0.0;0.0;;;;1.0;134.0;
78521;SPS30;67819;51.972;5.678;2023-10-08T00:32:22;0.0;0.0;0.0;0.0;;;;1.0;126.0;
78521;SPS30;67819;51.972;5.678;2023-10-08T00:34:50;0.9;0.9;0.8;0.8;;;;1.0;131.0;
78521;SPS30;67819;51.972;5.678;2023-10-08T00:37:21;0.0;0.0;0.0;0.0;;;;1.0;132.0;
78521;SPS30;67819;51.972;5.678;2023-10-08T00:39:53;0.0;0.0;0.0;0.0;;;;1.0;133.0;
78521;SPS30;67819;51.972;5.678;2023-10-08T00:42:23;0.0;0.0;0.0;0.0;;;;1.0;136.0;
78521;SPS30;67819;51.972;5.678;2023-10-08T00:44:51;0.4;0.4;0.4;0.3;;;;1.0;146.0;
78521;SPS30;67819;51.972;5.678;2023-10-08T00:47:20;0.0;0.0;0.0;0.0;;;;1.0;142.0;
78521;SPS30;67819;51.972;5.678;2023-10-08T00:49:53;0.2;0.2;0.2;0.2;;;;1.0;135.0;
78521;SPS30;67819;51.972;5.678;2023-10-08T00:52:34;0.0;0.0;0.0;0.0;;;;1.0;137.0;
78521;SPS30;67819;51.972;5.678;2023-10-08T00:55:14;0.0;0.0;0.0;0.0;;;;1.0;139.0;
78521;SPS30;67819;51.972;5.678;2023-10-08T00:57:55;0.0;0.0;0.0;0.0;;;;1.0;143.0;
78521;SPS30;67819;51.972;5.678;2023-10-08T01:00:30;0.0;0.0;0.0;0.0;;;;1.0;147.0;
78521;SPS30;67819;51.972;5.678;2023-10-08T01:03:04;0.0;0.0;0.0;0.0;;;;1.0;148.0;
78521;SPS30;67819;51.972;5.678;2023-10-08T01:05:39;0.0;0.0;0.0;0.0;;;;1.0;152.0;
78521;SPS30;67819;51.972;5.678;2023-10-08T01:08:12;0.0;0.0;0.0;0.0;;;;1.0;153.0;
78521;SPS30;67819;51.972;5.678;2023-10-08T01:10:48;0.0;0.0;0.0;0.0;;;;1.0;152.0;
78521;SPS30;67819;51.972;5.678;2023-10-08T01:13:23;0.0;0.0;0.0;0.0;;;;1.0;153.0;
78521;SPS30;67819;51.972;5.678;2023-10-08T01:15:53;0.0;0.0;0.0;0.0;;;;1.0;155.0;
78521;SPS30;67819;51.972;5.678;2023-10-08T01:18:24;1.3;1.3;1.3;1.2;;;;1.0;156.0;
78521;SPS30;67819;51.972;5.678;2023-10-08T01:20:57;0.0;0.0;0.0;0.0;;;;1.0;157.0;
78521;SPS30;67819;51.972;5.678;2023-10-08T01:23:31;0.0;0.0;0.0;0.0;;;;1.0;159.0;
78521;SPS30;67819;51.972;5.678;2023-10-08T01:25:59;0.0;0.0;0.0;0.0;;;;1.0;160.0;
78521;SPS30;67819;51.972;5.678;2023-10-08T01:28:35;0.0;0.0;0.0;0.0;;;;1.0;159.0;
78521;SPS30;67819;51.972;5.678;2023-10-08T01:31:06;0.2;0.2;0.2;0.2;;;;1.0;158.0;
78521;SPS30;67819;51.972;5.678;2023-10-08T01:33:38;0.0;0.0;0.0;0.0;;;;1.0;158.0;
78521;SPS30;67819;51.972;5.678;2023-10-08T01:36:15;0.0;0.0;0.0;0.0;;;;1.0;159.0;
78521;SPS30;67819;51.972;5.678;2023-10-08T01:38:44;0.0;0.0;0.0;0.0;;;;1.0;161.0;
78521;SPS30;67819;51.972;5.678;2023-10-08T01:41:16;0.0;0.0;0.0;0.0;;;;1.0;161.0;
78521;SPS30;67819;51.972;5.678;2023-10-08T01:43:53;0.2;0.2;0.2;0.2;;;;1.0;161.0;
78521;SPS30;67819;51.972;5.678;2023-10-08T01:46:21;0.8;0.8;0.8;0.7;;;;1.0;161.0;
78521;SPS30;67819;51.972;5.678;2023-10-08T01:48:50;0.0;0.0;0.0;0.0;;;;1.0;164.0;
78521;SPS30;67819;51.972;5.678;2023-10-08T01:51:24;0.5;0.4;0.4;0.4;;;;1.0;164.0;
78521;SPS30;67819;51.972;5.678;2023-10-08T01:53:58;0.0;0.0;0.0;0.0;;;;1.0;164.0;
78521;SPS30;67819;51.972;5.678;2023-10-08T01:56:28;0.0;0.0;0.0;0.0;;;;1.0;165.0;
78521;SPS30;67819;51.972;5.678;2023-10-08T01:58:57;0.0;0.0;0.0;0.0;;;;1.0;165.0;
78521;SPS30;67819;51.972;5.678;2023-10-08T02:01:26;0.0;0.0;0.0;0.0;;;;1.0;166.0;
78521;SPS30;67819;51.972;5.678;2023-10-08T02:03:57;0.0;0.0;0.0;0.0;;;;1.0;167.0;
78521;SPS30;67819;51.972;5.678;2023-10-08T02:06:25;15.3;15.2;15.1;14.2;;;;1.0;167.0;
78521;SPS30;67819;51.972;5.678;2023-10-08T02:08:55;0.0;0.0;0.0;0.0;;;;1.0;167.0;
78521;SPS30;67819;51.972;5.678;2023-10-08T02:11:24;0.2;0.2;0.2;0.2;;;;1.0;168.0;
78521;SPS30;67819;51.972;5.678;2023-10-08T02:13:53;0.1;0.1;0.1;0.1;;;;1.0;169.0;
78521;SPS30;67819;51.972;5.678;2023-10-08T02:16:22;1.2;1.2;1.1;1.1;;;;1.0;169.0;
78521;SPS30;67819;51.972;5.678;2023-10-08T02:18:50;0.0;0.0;0.0;0.0;;;;1.0;176.0;
78521;SPS30;67819;51.972;5.678;2023-10-08T02:21:19;2.0;2.0;1.9;1.8;;;;1.0;181.0;
78521;SPS30;67819;51.972;5.678;2023-10-08T02:23:47;0.0;0.0;0.0;0.0;;;;1.0;184.0;
78521;SPS30;67819;51.972;5.678;2023-10-08T02:26:16;0.0;0.0;0.0;0.0;;;;1.0;184.0;
78521;SPS30;67819;51.972;5.678;2023-10-08T02:28:45;0.0;0.0;0.0;0.0;;;;1.0;183.0;
78521;SPS30;67819;51.972;5.678;2023-10-08T02:31:14;0.0;0.0;0.0;0.0;;;;1.0;184.0;
78521;SPS30;67819;51.972;5.678;2023-10-08T02:33:44;0.0;0.0;0.0;0.0;;;;1.0;184.0;
78521;SPS30;67819;51.972;5.678;2023-10-08T02:36:13;0.0;0.0;0.0;0.0;;;;1.0;183.0;
78521;SPS30;67819;51.972;5.678;2023-10-08T02:38:41;0.0;0.0;0.0;0.0;;;;1.0;181.0;
78521;SPS30;67819;51.972;5.678;2023-10-08T02:41:17;0.1;0.1;0.1;0.1;;;;1.0;176.0;
78521;SPS30;67819;51.972;5.678;2023-10-08T02:43:45;0.0;0.0;0.0;0.0;;;;1.0;172.0;
78521;SPS30;67819;51.972;5.678;2023-10-08T02:46:14;0.0;0.0;0.0;0.0;;;;1.0;173.0;
78521;SPS30;67819;51.972;5.678;2023-10-08T02:48:44;0.0;0.0;0.0;0.0;;;;1.0;175.0;
78521;SPS30;67819;51.972;5.678;2023-10-08T02:51:13;0.4;0.4;0.4;0.3;;;;1.0;171.0;
78521;SPS30;67819;51.972;5.678;2023-10-08T02:53:42;0.0;0.0;0.0;0.0;;;;1.0;168.0;
78521;SPS30;67819;51.972;5.678;2023-10-08T02:56:12;0.0;0.0;0.0;0.0;;;;1.0;169.0;
78521;SPS30;67819;51.972;5.678;2023-10-08T02:58:41;0.0;0.0;0.0;0.0;;;;1.0;169.0;
78521;SPS30;67819;51.972;5.678;2023-10-08T03:01:13;0.0;0.0;0.0;0.0;;;;1.0;169.0;
78521;SPS30;67819;51.972;5.678;2023-10-08T03:03:42;0.0;0.0;0.0;0.0;;;;1.0;172.0;
78521;SPS30;67819;51.972;5.678;2023-10-08T03:06:12;0.0;0.0;0.0;0.0;;;;1.0;174.0;
78521;SPS30;67819;51.972;5.678;2023-10-08T03:08:41;0.0;0.0;0.0;0.0;;;;1.0;173.0;
78521;SPS30;67819;51.972;5.678;2023-10-08T03:11:12;0.0;0.0;0.0;0.0;;;;1.0;166.0;
78521;SPS30;67819;51.972;5.678;2023-10-08T03:13:47;0.0;0.0;0.0;0.0;;;;1.0;166.0;
78521;SPS30;67819;51.972;5.678;2023-10-08T03:16:18;0.0;0.0;0.0;0.0;;;;1.0;168.0;
78521;SPS30;67819;51.972;5.678;2023-10-08T03:18:53;0.0;0.0;0.0;0.0;;;;1.0;169.0;
78521;SPS30;67819;51.972;5.678;2023-10-08T03:21:23;0.0;0.0;0.0;0.0;;;;1.0;170.0;
78521;SPS30;67819;51.972;5.678;2023-10-08T03:24:06;0.0;0.0;0.0;0.0;;;;1.0;172.0;
78521;SPS30;67819;51.972;5.678;2023-10-08T03:26:45;0.0;0.0;0.0;0.0;;;;1.0;169.0;
78521;SPS30;67819;51.972;5.678;2023-10-08T03:29:18;0.0;0.0;0.0;0.0;;;;1.0;168.0;
78521;SPS30;67819;51.972;5.678;2023-10-08T03:31:47;0.0;0.0;0.0;0.0;;;;1.0;170.0;
78521;SPS30;67819;51.972;5.678;2023-10-08T03:34:18;0.0;0.0;0.0;0.0;;;;1.0;170.0;
78521;SPS30;67819;51.972;5.678;2023-10-08T03:36:53;0.0;0.0;0.0;0.0;;;;1.0;171.0;
78521;SPS30;67819;51.972;5.678;2023-10-08T03:39:28;0.0;0.0;0.0;0.0;;;;1.0;173.0;
78521;SPS30;67819;51.972;5.678;2023-10-08T03:42:01;1.4;1.3;1.3;1.3;;;;1.0;175.0;
78521;SPS30;67819;51.972;5.678;2023-10-08T03:44:36;0.1;0.1;0.1;0.1;;;;1.0;177.0;
78521;SPS30;67819;51.972;5.678;2023-10-08T03:47:09;0.9;0.9;0.9;0.9;;;;1.0;178.0;
78521;SPS30;67819;51.972;5.678;2023-10-08T03:49:38;0.0;0.0;0.0;0.0;;;;1.0;177.0;
78521;SPS30;67819;51.972;5.678;2023-10-08T03:52:11;0.0;0.0;0.0;0.0;;;;1.0;176.0;
78521;SPS30;67819;51.972;5.678;2023-10-08T03:54:41;0.0;0.0;0.0;0.0;;;;1.0;173.0;
78521;SPS30;67819;51.972;5.678;2023-10-08T03:57:14;1.1;1.0;1.0;1.0;;;;1.0;165.0;
78521;SPS30;67819;51.972;5.678;2023-10-08T03:59:48;0.0;0.0;0.0;0.0;;;;1.0;164.0;
78521;SPS30;67819;51.972;5.678;2023-10-08T04:02:21;0.0;0.0;0.0;0.0;;;;1.0;164.0;
78521;SPS30;67819;51.972;5.678;2023-10-08T04:04:54;0.0;0.0;0.0;0.0;;;;1.0;165.0;
78521;SPS30;67819;51.972;5.678;2023-10-08T04:07:25;0.0;0.0;0.0;0.0;;;;1.0;167.0;
78521;SPS30;67819;51.972;5.678;2023-10-08T04:10:01;3.7;3.7;3.6;3.4;;;;1.0;170.0;
78521;SPS30;67819;51.972;5.678;2023-10-08T04:12:49;0.0;0.0;0.0;0.0;;;;1.0;170.0;
78521;SPS30;67819;51.972;5.678;2023-10-08T04:15:19;0.1;0.1;0.1;0.1;;;;1.0;169.0;
78521;SPS30;67819;51.972;5.678;2023-10-08T04:17:47;0.0;0.0;0.0;0.0;;;;1.0;169.0;
78521;SPS30;67819;51.972;5.678;2023-10-08T04:20:17;0.0;0.0;0.0;0.0;;;;1.0;170.0;
78521;SPS30;67819;51.972;5.678;2023-10-08T04:22:59;0.0;0.0;0.0;0.0;;;;1.0;172.0;
78521;SPS30;67819;51.972;5.678;2023-10-08T04:25:31;0.0;0.0;0.0;0.0;;;;1.0;176.0;
78521;SPS30;67819;51.972;5.678;2023-10-08T04:28:00;0.0;0.0;0.0;0.0;;;;1.0;179.0;
78521;SPS30;67819;51.972;5.678;2023-10-08T04:30:33;0.5;0.5;0.5;0.5;;;;1.0;179.0;
78521;SPS30;67819;51.972;5.678;2023-10-08T04:33:03;0.9;0.9;0.9;0.8;;;;1.0;179.0;
78521;SPS30;67819;51.972;5.678;2023-10-08T04:35:33;0.0;0.0;0.0;0.0;;;;1.0;179.0;
78521;SPS30;67819;51.972;5.678;2023-10-08T04:38:09;0.0;0.0;0.0;0.0;;;;1.0;179.0;
78521;SPS30;67819;51.972;5.678;2023-10-08T04:40:38;0.0;0.0;0.0;0.0;;;;1.0;179.0;
78521;SPS30;67819;51.972;5.678;2023-10-08T04:43:12;5.8;5.8;5.7;5.4;;;;1.0;178.0;
78521;SPS30;67819;51.972;5.678;2023-10-08T04:45:41;0.1;0.1;0.1;0.1;;;;1.0;178.0;
78521;SPS30;67819;51.972;5.678;2023-10-08T04:48:10;2.2;2.2;2.2;2.0;;;;1.0;178.0;
78521;SPS30;67819;51.972;5.678;2023-10-08T04:50:40;0.0;0.0;0.0;0.0;;;;1.0;178.0;
78521;SPS30;67819;51.972;5.678;2023-10-08T04:53:10;0.0;0.0;0.0;0.0;;;;1.0;178.0;
78521;SPS30;67819;51.972;5.678;2023-10-08T04:55:42;0.0;0.0;0.0;0.0;;;;1.0;178.0;
78521;SPS30;67819;51.972;5.678;2023-10-08T04:58:14;0.0;0.0;0.0;0.0;;;;1.0;179.0;
78521;SPS30;67819;51.972;5.678;2023-10-08T05:00:47;0.0;0.0;0.0;0.0;;;;1.0;180.0;
78521;SPS30;67819;51.972;5.678;2023-10-08T05:03:25;0.0;0.0;0.0;0.0;;;;1.0;182.0;
78521;SPS30;67819;51.972;5.678;2023-10-08T05:05:59;0.0;0.0;0.0;0.0;;;;1.0;183.0;
78521;SPS30;67819;51.972;5.678;2023-10-08T05:08:40;0.2;0.2;0.2;0.1;;;;1.0;177.0;
78521;SPS30;67819;51.972;5.678;2023-10-08T05:11:24;0.2;0.2;0.2;0.2;;;;1.0;162.0;
78521;SPS30;67819;51.972;5.678;2023-10-08T05:13:58;0.0;0.0;0.0;0.0;;;;1.0;138.0;
78521;SPS30;67819;51.972;5.678;2023-10-08T05:16:32;0.0;0.0;0.0;0.0;;;;1.0;120.0;
78521;SPS30;67819;51.972;5.678;2023-10-08T05:19:09;0.4;0.4;0.4;0.4;;;;1.0;110.0;
78521;SPS30;67819;51.972;5.678;2023-10-08T05:21:57;0.1;0.1;0.1;0.1;;;;1.0;101.0;
78521;SPS30;67819;51.972;5.678;2023-10-08T05:24:34;1.6;1.6;1.6;1.5;;;;1.0;97.0;
78521;SPS30;67819;51.972;5.678;2023-10-08T05:27:07;0.0;0.0;0.0;0.0;;;;1.0;88.0;
78521;SPS30;67819;51.972;5.678;2023-10-08T05:29:52;0.0;0.0;0.0;0.0;;;;1.0;82.0;
78521;SPS30;67819;51.972;5.678;2023-10-08T05:32:25;0.0;0.0;0.0;0.0;;;;1.0;76.0;
78521;SPS30;67819;51.972;5.678;2023-10-08T05:35:10;0.0;0.0;0.0;0.0;;;;1.0;74.0;
78521;SPS30;67819;51.972;5.678;2023-10-08T05:38:03;0.0;0.0;0.0;0.0;;;;1.0;70.0;
78521;SPS30;67819;51.972;5.678;2023-10-08T05:40:43;0.0;0.0;0.0;0.0;;;;1.0;67.0;
78521;SPS30;67819;51.972;5.678;2023-10-08T05:43:27;0.3;0.3;0.3;0.3;;;;1.0;62.0;
78521;SPS30;67819;51.972;5.678;2023-10-08T05:46:11;0.0;0.0;0.0;0.0;;;;1.0;54.0;
78521;SPS30;67819;51.972;5.678;2023-10-08T05:48:52;0.4;0.4;0.4;0.4;;;;1.0;42.0;
78521;SPS30;67819;51.972;5.678;2023-10-08T05:51:34;0.0;0.0;0.0;0.0;;;;1.0;42.0;
78521;SPS30;67819;51.972;5.678;2023-10-08T05:54:17;0.3;0.3;0.3;0.2;;;;1.0;44.0;
78521;SPS30;67819;51.972;5.678;2023-10-08T05:56:58;0.0;0.0;0.0;0.0;;;;1.0;38.0;
78521;SPS30;67819;51.972;5.678;2023-10-08T05:59:38;0.0;0.0;0.0;0.0;;;;1.0;38.0;
78521;SPS30;67819;51.972;5.678;2023-10-08T06:02:25;0.0;0.0;0.0;0.0;;;;1.0;38.0;
78521;SPS30;67819;51.972;5.678;2023-10-08T06:05:02;0.0;0.0;0.0;0.0;;;;1.0;38.0;
78521;SPS30;67819;51.972;5.678;2023-10-08T06:07:43;0.0;0.0;0.0;0.0;;;;1.0;37.0;
78521;SPS30;67819;51.972;5.678;2023-10-08T06:10:21;0.0;0.0;0.0;0.0;;;;1.0;36.0;
78521;SPS30;67819;51.972;5.678;2023-10-08T06:13:00;0.0;0.0;0.0;0.0;;;;1.0;35.0;
78521;SPS30;67819;51.972;5.678;2023-10-08T06:15:35;0.6;0.6;0.6;0.6;;;;1.0;34.0;
78521;SPS30;67819;51.972;5.678;2023-10-08T06:18:10;0.0;0.0;0.0;0.0;;;;1.0;34.0;
78521;SPS30;67819;51.972;5.678;2023-10-08T06:20:40;0.0;0.0;0.0;0.0;;;;1.0;33.0;
78521;SPS30;67819;51.972;5.678;2023-10-08T06:23:12;3.8;3.8;3.7;3.5;;;;1.0;33.0;
78521;SPS30;67819;51.972;5.678;2023-10-08T06:25:44;0.0;0.0;0.0;0.0;;;;1.0;33.0;
78521;SPS30;67819;51.972;5.678;2023-10-08T06:28:14;0.1;0.1;0.1;0.1;;;;1.0;31.0;
78521;SPS30;67819;51.972;5.678;2023-10-08T06:30:45;0.1;0.1;0.1;0.1;;;;1.0;30.0;
78521;SPS30;67819;51.972;5.678;2023-10-08T06:33:15;0.0;0.0;0.0;0.0;;;;1.0;29.0;
78521;SPS30;67819;51.972;5.678;2023-10-08T06:35:44;0.0;0.0;0.0;0.0;;;;1.0;29.0;
78521;SPS30;67819;51.972;5.678;2023-10-08T06:38:19;0.0;0.0;0.0;0.0;;;;1.0;29.0;
78521;SPS30;67819;51.972;5.678;2023-10-08T06:40:50;0.1;0.1;0.1;0.1;;;;1.0;26.0;
78521;SPS30;67819;51.972;5.678;2023-10-08T06:43:19;0.0;0.0;0.0;0.0;;;;1.0;25.0;
78521;SPS30;67819;51.972;5.678;2023-10-08T06:45:50;0.2;0.2;0.2;0.2;;;;1.0;25.0;
78521;SPS30;67819;51.972;5.678;2023-10-08T06:48:24;0.0;0.0;0.0;0.0;;;;1.0;24.0;
78521;SPS30;67819;51.972;5.678;2023-10-08T06:50:55;0.1;0.1;0.1;0.1;;;;1.0;23.0;
78521;SPS30;67819;51.972;5.678;2023-10-08T06:53:24;0.0;0.0;0.0;0.0;;;;1.0;21.0;
78521;SPS30;67819;51.972;5.678;2023-10-08T06:55:55;0.0;0.0;0.0;0.0;;;;1.0;22.0;
78521;SPS30;67819;51.972;5.678;2023-10-08T06:58:30;0.2;0.2;0.2;0.2;;;;1.0;23.0;
78521;SPS30;67819;51.972;5.678;2023-10-08T07:01:00;3.2;3.2;3.1;3.0;;;;1.0;24.0;
78521;SPS30;67819;51.972;5.678;2023-10-08T07:03:31;0.0;0.0;0.0;0.0;;;;1.0;25.0;
78521;SPS30;67819;51.972;5.678;2023-10-08T07:06:00;0.0;0.0;0.0;0.0;;;;1.0;25.0;
78521;SPS30;67819;51.972;5.678;2023-10-08T07:08:36;0.0;0.0;0.0;0.0;;;;1.0;31.0;
78521;SPS30;67819;51.972;5.678;2023-10-08T07:11:04;0.0;0.0;0.0;0.0;;;;1.0;33.0;
78521;SPS30;67819;51.972;5.678;2023-10-08T07:13:37;0.0;0.0;0.0;0.0;;;;1.0;31.0;
78521;SPS30;67819;51.972;5.678;2023-10-08T07:16:08;0.0;0.0;0.0;0.0;;;;1.0;30.0;
78521;SPS30;67819;51.972;5.678;2023-10-08T07:18:43;0.0;0.0;0.0;0.0;;;;1.0;30.0;
78521;SPS30;67819;51.972;5.678;2023-10-08T07:21:17;0.1;0.1;0.1;0.1;;;;1.0;30.0;
78521;SPS30;67819;51.972;5.678;2023-10-08T07:23:50;0.0;0.0;0.0;0.0;;;;1.0;30.0;
78521;SPS30;67819;51.972;5.678;2023-10-08T07:26:26;0.1;0.1;0.1;0.1;;;;1.0;30.0;
78521;SPS30;67819;51.972;5.678;2023-10-08T07:28:59;0.2;0.2;0.2;0.2;;;;1.0;30.0;
78521;SPS30;67819;51.972;5.678;2023-10-08T07:31:31;0.0;0.0;0.0;0.0;;;;1.0;31.0;
78521;SPS30;67819;51.972;5.678;2023-10-08T07:34:00;0.0;0.0;0.0;0.0;;;;1.0;32.0;
78521;SPS30;67819;51.972;5.678;2023-10-08T07:36:34;0.0;0.0;0.0;0.0;;;;1.0;33.0;
78521;SPS30;67819;51.972;5.678;2023-10-08T07:39:02;0.0;0.0;0.0;0.0;;;;1.0;33.0;
78521;SPS30;67819;51.972;5.678;2023-10-08T07:41:34;0.0;0.0;0.0;0.0;;;;1.0;33.0;
78521;SPS30;67819;51.972;5.678;2023-10-08T07:44:03;0.0;0.0;0.0;0.0;;;;1.0;34.0;
78521;SPS30;67819;51.972;5.678;2023-10-08T07:46:35;0.0;0.0;0.0;0.0;;;;1.0;34.0;
78521;SPS30;67819;51.972;5.678;2023-10-08T07:49:04;0.0;0.0;0.0;0.0;;;;1.0;34.0;
78521;SPS30;67819;51.972;5.678;2023-10-08T07:51:39;0.0;0.0;0.0;0.0;;;;1.0;35.0;
78521;SPS30;67819;51.972;5.678;2023-10-08T07:54:07;0.0;0.0;0.0;0.0;;;;1.0;35.0;
78521;SPS30;67819;51.972;5.678;2023-10-08T07:56:41;0.0;0.0;0.0;0.0;;;;1.0;36.0;
78521;SPS30;67819;51.972;5.678;2023-10-08T07:59:10;1.5;1.5;1.4;1.4;;;;1.0;38.0;
78521;SPS30;67819;51.972;5.678;2023-10-08T08:01:41;0.0;0.0;0.0;0.0;;;;1.0;42.0;
78521;SPS30;67819;51.972;5.678;2023-10-08T08:04:10;0.0;0.0;0.0;0.0;;;;1.0;42.0;
78521;SPS30;67819;51.972;5.678;2023-10-08T08:06:44;0.0;0.0;0.0;0.0;;;;1.0;43.0;
78521;SPS30;67819;51.972;5.678;2023-10-08T08:09:15;0.8;0.8;0.8;0.7;;;;1.0;43.0;
78521;SPS30;67819;51.972;5.678;2023-10-08T08:11:46;0.0;0.0;0.0;0.0;;;;1.0;43.0;
78521;SPS30;67819;51.972;5.678;2023-10-08T08:14:15;0.0;0.0;0.0;0.0;;;;1.0;43.0;
78521;SPS30;67819;51.972;5.678;2023-10-08T08:16:50;0.0;0.0;0.0;0.0;;;;1.0;45.0;
78521;SPS30;67819;51.972;5.678;2023-10-08T08:19:19;0.1;0.1;0.1;0.1;;;;1.0;47.0;
78521;SPS30;67819;51.972;5.678;2023-10-08T08:21:50;0.0;0.0;0.0;0.0;;;;1.0;49.0;
78521;SPS30;67819;51.972;5.678;2023-10-08T08:24:20;0.1;0.1;0.1;0.1;;;;1.0;51.0;
78521;SPS30;67819;51.972;5.678;2023-10-08T08:27:01;0.0;0.0;0.0;0.0;;;;1.0;52.0;
78521;SPS30;67819;51.972;5.678;2023-10-08T08:29:35;0.0;0.0;0.0;0.0;;;;1.0;53.0;
78521;SPS30;67819;51.972;5.678;2023-10-08T08:32:10;0.8;0.8;0.8;0.8;;;;1.0;53.0;
78521;SPS30;67819;51.972;5.678;2023-10-08T08:34:41;0.0;0.0;0.0;0.0;;;;1.0;53.0;
78521;SPS30;67819;51.972;5.678;2023-10-08T08:37:10;0.4;0.4;0.3;0.3;;;;1.0;53.0;
78521;SPS30;67819;51.972;5.678;2023-10-08T08:39:39;0.0;0.0;0.0;0.0;;;;1.0;53.0;
78521;SPS30;67819;51.972;5.678;2023-10-08T08:42:08;0.0;0.0;0.0;0.0;;;;1.0;57.0;
78521;SPS30;67819;51.972;5.678;2023-10-08T08:44:37;0.0;0.0;0.0;0.0;;;;1.0;58.0;
78521;SPS30;67819;51.972;5.678;2023-10-08T08:47:12;0.0;0.0;0.0;0.0;;;;1.0;58.0;
78521;SPS30;67819;51.972;5.678;2023-10-08T08:49:43;0.2;0.2;0.2;0.2;;;;1.0;58.0;
78521;SPS30;67819;51.972;5.678;2023-10-08T08:52:13;0.0;0.0;0.0;0.0;;;;1.0;57.0;
78521;SPS30;67819;51.972;5.678;2023-10-08T08:54:42;0.0;0.0;0.0;0.0;;;;1.0;56.0;
78521;SPS30;67819;51.972;5.678;2023-10-08T08:57:11;0.0;0.0;0.0;0.0;;;;1.0;56.0;
78521;SPS30;67819;51.972;5.678;2023-10-08T08:59:44;0.0;0.0;0.0;0.0;;;;1.0;54.0;
78521;SPS30;67819;51.972;5.678;2023-10-08T09:02:20;0.0;0.0;0.0;0.0;;;;1.0;54.0;
78521;SPS30;67819;51.972;5.678;2023-10-08T09:04:49;0.6;0.6;0.6;0.6;;;;1.0;54.0;
78521;SPS30;67819;51.972;5.678;2023-10-08T09:07:21;0.0;0.0;0.0;0.0;;;;1.0;56.0;
78521;SPS30;67819;51.972;5.678;2023-10-08T09:09:49;0.0;0.0;0.0;0.0;;;;1.0;56.0;
78521;SPS30;67819;51.972;5.678;2023-10-08T09:12:18;0.0;0.0;0.0;0.0;;;;1.0;55.0;
78521;SPS30;67819;51.972;5.678;2023-10-08T09:14:47;0.0;0.0;0.0;0.0;;;;1.0;54.0;
78521;SPS30;67819;51.972;5.678;2023-10-08T09:17:18;0.0;0.0;0.0;0.0;;;;1.0;53.0;
78521;SPS30;67819;51.972;5.678;2023-10-08T09:19:49;0.0;0.0;0.0;0.0;;;;1.0;53.0;
78521;SPS30;67819;51.972;5.678;2023-10-08T09:22:21;0.0;0.0;0.0;0.0;;;;1.0;54.0;
78521;SPS30;67819;51.972;5.678;2023-10-08T09:24:51;0.0;0.0;0.0;0.0;;;;1.0;56.0;
78521;SPS30;67819;51.972;5.678;2023-10-08T09:27:25;0.0;0.0;0.0;0.0;;;;1.0;57.0;
78521;SPS30;67819;51.972;5.678;2023-10-08T09:29:56;0.0;0.0;0.0;0.0;;;;1.0;57.0;
78521;SPS30;67819;51.972;5.678;2023-10-08T09:32:25;0.0;0.0;0.0;0.0;;;;1.0;57.0;
78521;SPS30;67819;51.972;5.678;2023-10-08T09:34:54;7.6;7.6;7.6;7.2;;;;1.0;57.0;
78521;SPS30;67819;51.972;5.678;2023-10-08T09:37:24;0.0;0.0;0.0;0.0;;;;1.0;56.0;
78521;SPS30;67819;51.972;5.678;2023-10-08T09:39:53;0.0;0.0;0.0;0.0;;;;1.0;57.0;
78521;SPS30;67819;51.972;5.678;2023-10-08T09:42:24;0.0;0.0;0.0;0.0;;;;1.0;59.0;
78521;SPS30;67819;51.972;5.678;2023-10-08T09:44:56;0.0;0.0;0.0;0.0;;;;1.0;60.0;
78521;SPS30;67819;51.972;5.678;2023-10-08T09:47:26;0.0;0.0;0.0;0.0;;;;1.0;60.0;
78521;SPS30;67819;51.972;5.678;2023-10-08T09:50:00;0.0;0.0;0.0;0.0;;;;1.0;61.0;
78521;SPS30;67819;51.972;5.678;2023-10-08T09:52:41;0.0;0.0;0.0;0.0;;;;1.0;62.0;
78521;SPS30;67819;51.972;5.678;2023-10-08T09:55:10;0.0;0.0;0.0;0.0;;;;1.0;64.0;
78521;SPS30;67819;51.972;5.678;2023-10-08T09:57:40;0.0;0.0;0.0;0.0;;;;1.0;66.0;
78521;SPS30;67819;51.972;5.678;2023-10-08T10:00:09;0.3;0.3;0.3;0.3;;;;1.0;68.0;
78521;SPS30;67819;51.972;5.678;2023-10-08T10:02:41;0.0;0.0;0.0;0.0;;;;1.0;68.0;
78521;SPS30;67819;51.972;5.678;2023-10-08T10:05:12;0.1;0.1;0.1;0.1;;;;1.0;70.0;
78521;SPS30;67819;51.972;5.678;2023-10-08T10:07:46;0.0;0.0;0.0;0.0;;;;1.0;71.0;
78521;SPS30;67819;51.972;5.678;2023-10-08T10:10:37;0.0;0.0;0.0;0.0;;;;1.0;71.0;
78521;SPS30;67819;51.972;5.678;2023-10-08T10:13:10;0.0;0.0;0.0;0.0;;;;1.0;70.0;
78521;SPS30;67819;51.972;5.678;2023-10-08T10:15:41;0.0;0.0;0.0;0.0;;;;1.0;70.0;
78521;SPS30;67819;51.972;5.678;2023-10-08T10:18:12;0.0;0.0;0.0;0.0;;;;1.0;72.0;
78521;SPS30;67819;51.972;5.678;2023-10-08T10:20:42;1.2;1.2;1.2;1.1;;;;1.0;71.0;
78521;SPS30;67819;51.972;5.678;2023-10-08T10:26:06;0.0;0.0;0.0;0.0;;;;1.0;69.0;
78521;SPS30;67819;51.972;5.678;2023-10-08T10:29:22;0.0;0.0;0.0;0.0;;;;1.0;69.0;
78521;SPS30;67819;51.972;5.678;2023-10-08T10:31:54;0.1;0.1;0.1;0.1;;;;1.0;69.0;
78521;SPS30;67819;51.972;5.678;2023-10-08T10:34:23;0.0;0.0;0.0;0.0;;;;1.0;68.0;
78521;SPS30;67819;51.972;5.678;2023-10-08T10:36:54;0.7;0.7;0.7;0.7;;;;1.0;66.0;
78521;SPS30;67819;51.972;5.678;2023-10-08T10:39:25;0.0;0.0;0.0;0.0;;;;1.0;63.0;
78521;SPS30;67819;51.972;5.678;2023-10-08T10:41:59;0.0;0.0;0.0;0.0;;;;1.0;62.0;
78521;SPS30;67819;51.972;5.678;2023-10-08T10:44:32;0.0;0.0;0.0;0.0;;;;1.0;62.0;
78521;SPS30;67819;51.972;5.678;2023-10-08T10:47:03;0.0;0.0;0.0;0.0;;;;1.0;67.0;
78521;SPS30;67819;51.972;5.678;2023-10-08T10:49:48;0.0;0.0;0.0;0.0;;;;1.0;75.0;
78521;SPS30;67819;51.972;5.678;2023-10-08T10:52:22;0.0;0.0;0.0;0.0;;;;1.0;78.0;
78521;SPS30;67819;51.972;5.678;2023-10-08T10:55:05;0.0;0.0;0.0;0.0;;;;1.0;79.0;
78521;SPS30;67819;51.972;5.678;2023-10-08T10:57:48;0.0;0.0;0.0;0.0;;;;1.0;83.0;
78521;SPS30;67819;51.972;5.678;2023-10-08T11:00:22;0.0;0.0;0.0;0.0;;;;1.0;85.0;
78521;SPS30;67819;51.972;5.678;2023-10-08T11:03:08;0.0;0.0;0.0;0.0;;;;1.0;86.0;
78521;SPS30;67819;51.972;5.678;2023-10-08T11:05:58;0.0;0.0;0.0;0.0;;;;1.0;89.0;
78521;SPS30;67819;51.972;5.678;2023-10-08T11:08:32;0.0;0.0;0.0;0.0;;;;1.0;89.0;
78521;SPS30;67819;51.972;5.678;2023-10-08T11:11:04;0.0;0.0;0.0;0.0;;;;1.0;88.0;
78521;SPS30;67819;51.972;5.678;2023-10-08T11:13:36;0.0;0.0;0.0;0.0;;;;1.0;94.0;
78521;SPS30;67819;51.972;5.678;2023-10-08T11:16:08;0.0;0.0;0.0;0.0;;;;1.0;97.0;
78521;SPS30;67819;51.972;5.678;2023-10-08T11:18:43;0.0;0.0;0.0;0.0;;;;1.0;96.0;
78521;SPS30;67819;51.972;5.678;2023-10-08T11:21:16;0.0;0.0;0.0;0.0;;;;1.0;97.0;
78521;SPS30;67819;51.972;5.678;2023-10-08T11:23:50;0.0;0.0;0.0;0.0;;;;1.0;95.0;
78521;SPS30;67819;51.972;5.678;2023-10-08T11:26:22;0.0;0.0;0.0;0.0;;;;1.0;95.0;
78521;SPS30;67819;51.972;5.678;2023-10-08T11:29:01;0.0;0.0;0.0;0.0;;;;1.0;93.0;
78521;SPS30;67819;51.972;5.678;2023-10-08T11:31:31;0.0;0.0;0.0;0.0;;;;1.0;91.0;
78521;SPS30;67819;51.972;5.678;2023-10-08T11:34:02;0.0;0.0;0.0;0.0;;;;1.0;86.0;
78521;SPS30;67819;51.972;5.678;2023-10-08T11:36:39;0.0;0.0;0.0;0.0;;;;1.0;84.0;
78521;SPS30;67819;51.972;5.678;2023-10-08T11:39:21;0.0;0.0;0.0;0.0;;;;1.0;85.0;
78521;SPS30;67819;51.972;5.678;2023-10-08T11:41:59;0.0;0.0;0.0;0.0;;;;1.0;86.0;
78521;SPS30;67819;51.972;5.678;2023-10-08T11:44:33;0.0;0.0;0.0;0.0;;;;1.0;88.0;
78521;SPS30;67819;51.972;5.678;2023-10-08T11:47:03;0.3;0.3;0.3;0.3;;;;1.0;89.0;
78521;SPS30;67819;51.972;5.678;2023-10-08T11:49:37;0.0;0.0;0.0;0.0;;;;1.0;91.0;
78521;SPS30;67819;51.972;5.678;2023-10-08T11:52:11;1.0;1.0;1.0;0.9;;;;1.0;100.0;
78521;SPS30;67819;51.972;5.678;2023-10-08T11:54:41;0.0;0.0;0.0;0.0;;;;1.0;102.0;
78521;SPS30;67819;51.972;5.678;2023-10-08T11:57:10;0.0;0.0;0.0;0.0;;;;1.0;103.0;
78521;SPS30;67819;51.972;5.678;2023-10-08T11:59:39;0.0;0.0;0.0;0.0;;;;1.0;102.0;
78521;SPS30;67819;51.972;5.678;2023-10-08T12:02:08;0.0;0.0;0.0;0.0;;;;1.0;101.0;
78521;SPS30;67819;51.972;5.678;2023-10-08T12:04:41;0.1;0.1;0.1;0.1;;;;1.0;100.0;
78521;SPS30;67819;51.972;5.678;2023-10-08T12:07:11;0.0;0.0;0.0;0.0;;;;1.0;100.0;
78521;SPS30;67819;51.972;5.678;2023-10-08T12:09:43;0.0;0.0;0.0;0.0;;;;1.0;98.0;
78521;SPS30;67819;51.972;5.678;2023-10-08T12:12:14;0.0;0.0;0.0;0.0;;;;1.0;96.0;
78521;SPS30;67819;51.972;5.678;2023-10-08T12:14:47;0.0;0.0;0.0;0.0;;;;1.0;99.0;
78521;SPS30;67819;51.972;5.678;2023-10-08T12:17:18;0.0;0.0;0.0;0.0;;;;1.0;100.0;
78521;SPS30;67819;51.972;5.678;2023-10-08T12:19:51;0.0;0.0;0.0;0.0;;;;1.0;100.0;
78521;SPS30;67819;51.972;5.678;2023-10-08T12:22:22;0.0;0.0;0.0;0.0;;;;1.0;101.0;
78521;SPS30;67819;51.972;5.678;2023-10-08T12:24:52;0.0;0.0;0.0;0.0;;;;1.0;100.0;
78521;SPS30;67819;51.972;5.678;2023-10-08T12:27:21;0.0;0.0;0.0;0.0;;;;1.0;100.0;
78521;SPS30;67819;51.972;5.678;2023-10-08T12:29:50;0.0;0.0;0.0;0.0;;;;1.0;102.0;
78521;SPS30;67819;51.972;5.678;2023-10-08T12:32:19;0.0;0.0;0.0;0.0;;;;1.0;114.0;
78521;SPS30;67819;51.972;5.678;2023-10-08T12:34:52;0.4;0.4;0.4;0.4;;;;1.0;115.0;
78521;SPS30;67819;51.972;5.678;2023-10-08T12:37:21;0.0;0.0;0.0;0.0;;;;1.0;118.0;
78521;SPS30;67819;51.972;5.678;2023-10-08T12:39:50;0.0;0.0;0.0;0.0;;;;1.0;118.0;